Time,TemperatureF,DewpointF,PressureIn,WindDirection,WindDirectionDegrees,WindSpeedMPH,WindSpeedGustMPH,Humidity,HourlyPrecipIn,Conditions,Clouds,dailyrainin,SolarRadiationWatts/m^2,SoftwareType,DateUTC
2013-07-09 00:00:00,73.1,71.3,30.13,SE,136,0.0,0.0,94,0.00,,,0.90,0,Wunderground v.1.15,2013-07-09 04:00:00,
2013-07-09 00:05:00,73.1,71.3,30.13,South,174,0.0,0.0,94,0.00,,,0.00,0,Wunderground v.1.15,2013-07-09 04:05:00,
2013-07-09 00:10:00,73.1,71.3,30.14,SSE,147,0.0,0.0,94,0.00,,,0.00,0,Wunderground v.1.15,2013-07-09 04:10:00,
2013-07-09 00:15:00,73.2,71.4,30.13,SSE,165,0.0,0.0,94,0.00,,,0.00,0,Wunderground v.1.15,2013-07-09 04:15:00,
2013-07-09 00:20:00,73.1,71.0,30.13,SE,141,0.0,0.0,93,0.00,,,0.00,0,Wunderground v.1.15,2013-07-09 04:20:00,
2013-07-09 00:25:00,73.2,71.1,30.14,SSE,164,0.0,5.0,93,0.00,,,0.00,0,Wunderground v.1.15,2013-07-09 04:25:00,
2013-07-09 00:30:00,73.3,71.2,30.14,SSE,161,1.0,1.0,93,0.00,,,0.00,0,Wunderground v.1.15,2013-07-09 04:30:00,
2013-07-09 00:35:00,73.3,71.2,30.14,SSE,160,2.0,4.0,93,0.00,,,0.00,0,Wunderground v.1.15,2013-07-09 04:35:00,
2013-07-09 00:40:00,73.4,71.3,30.14,South,180,2.0,2.0,93,0.00,,,0.00,0,Wunderground v.1.15,2013-07-09 04:40:00,
2013-07-09 00:50:00,73.6,71.4,30.14,SSE,159,0.0,0.0,93,0.00,,,0.00,0,Wunderground v.1.15,2013-07-09 04:50:00,
2013-07-09 00:55:00,73.6,71.4,30.13,SSE,160,0.0,0.0,93,0.00,,,0.00,0,Wunderground v.1.15,2013-07-09 04:55:00,
2013-07-09 01:00:00,73.6,71.4,30.13,SSE,166,0.0,0.0,93,0.00,,,0.00,0,Wunderground v.1.15,2013-07-09 05:00:00,
2013-07-09 01:10:00,73.7,71.5,30.13,SSE,166,0.0,0.0,93,0.00,,,0.00,0,Wunderground v.1.15,2013-07-09 05:10:00,
2013-07-09 01:15:00,73.7,71.5,30.13,SSE,166,0.0,0.0,93,0.00,,,0.00,0,Wunderground v.1.15,2013-07-09 05:15:00,
2013-07-09 01:20:00,73.7,71.5,30.13,South,173,0.0,0.0,93,0.00,,,0.00,0,Wunderground v.1.15,2013-07-09 05:20:00,
2013-07-09 01:25:00,73.7,71.5,30.13,South,173,0.0,0.0,93,0.00,,,0.00,0,Wunderground v.1.15,2013-07-09 05:25:00,
2013-07-09 01:30:00,73.7,71.5,30.13,SSW,196,0.0,0.0,93,0.00,,,0.00,0,Wunderground v.1.15,2013-07-09 05:30:00,
2013-07-09 01:40:00,73.7,71.5,30.12,South,171,0.0,0.0,93,0.00,,,0.00,0,Wunderground v.1.15,2013-07-09 05:40:00,
2013-07-09 01:45:00,73.7,71.5,30.12,SSE,163,0.0,0.0,93,0.00,,,0.00,0,Wunderground v.1.15,2013-07-09 05:45:00,
2013-07-09 01:50:00,73.6,71.4,30.12,South,169,0.0,3.0,93,0.00,,,0.00,0,Wunderground v.1.15,2013-07-09 05:50:00,
2013-07-09 01:55:00,73.6,71.4,30.13,SSE,160,1.0,3.0,93,0.00,,,0.00,0,Wunderground v.1.15,2013-07-09 05:55:00,
2013-07-09 02:00:00,73.5,71.4,30.12,SSE,160,0.0,0.0,93,0.00,,,0.00,0,Wunderground v.1.15,2013-07-09 06:00:00,
2013-07-09 02:10:00,73.4,71.3,30.13,SSE,152,0.0,0.0,93,0.00,,,0.00,0,Wunderground v.1.15,2013-07-09 06:10:00,
2013-07-09 02:15:00,73.3,71.2,30.13,SSE,165,0.0,0.0,93,0.00,,,0.00,0,Wunderground v.1.15,2013-07-09 06:15:00,
2013-07-09 02:20:00,73.2,71.1,30.13,SSE,157,0.0,0.0,93,0.00,,,0.00,0,Wunderground v.1.15,2013-07-09 06:20:00,
2013-07-09 02:25:00,73.2,71.4,30.13,SSE,157,0.0,0.0,94,0.00,,,0.00,0,Wunderground v.1.15,2013-07-09 06:25:00,
2013-07-09 02:30:00,73.1,71.3,30.13,SSE,157,0.0,0.0,94,0.00,,,0.00,0,Wunderground v.1.15,2013-07-09 06:30:00,
2013-07-09 02:40:00,72.9,71.1,30.13,SSE,157,0.0,0.0,94,0.00,,,0.00,0,Wunderground v.1.15,2013-07-09 06:40:00,
2013-07-09 02:45:00,72.9,71.1,30.13,SSE,157,0.0,0.0,94,0.00,,,0.00,0,Wunderground v.1.15,2013-07-09 06:45:00,
2013-07-09 02:50:00,72.9,71.1,30.12,South,178,0.0,0.0,94,0.00,,,0.00,0,Wunderground v.1.15,2013-07-09 06:50:00,
2013-07-09 02:55:00,73.0,71.2,30.12,South,176,0.0,0.0,94,0.00,,,0.00,0,Wunderground v.1.15,2013-07-09 06:55:00,
2013-07-09 03:00:00,73.1,71.3,30.12,SSE,150,0.0,0.0,94,0.00,,,0.00,0,Wunderground v.1.15,2013-07-09 07:00:00,
2013-07-09 03:10:00,73.2,71.1,30.12,South,175,0.0,0.0,93,0.00,,,0.00,0,Wunderground v.1.15,2013-07-09 07:10:00,
2013-07-09 03:15:00,73.2,71.1,30.12,South,169,0.0,0.0,93,0.00,,,0.00,0,Wunderground v.1.15,2013-07-09 07:15:00,
2013-07-09 03:20:00,73.3,71.2,30.12,SSE,166,0.0,0.0,93,0.00,,,0.00,0,Wunderground v.1.15,2013-07-09 07:20:00,
2013-07-09 03:30:00,73.3,71.2,30.12,South,169,0.0,0.0,93,0.00,,,0.00,0,Wunderground v.1.15,2013-07-09 07:30:00,
2013-07-09 03:35:00,73.3,71.2,30.11,SSE,165,0.0,0.0,93,0.00,,,0.00,0,Wunderground v.1.15,2013-07-09 07:35:00,
2013-07-09 03:40:00,73.3,71.2,30.11,SSW,192,0.0,0.0,93,0.00,,,0.00,0,Wunderground v.1.15,2013-07-09 07:40:00,
2013-07-09 03:45:00,73.4,71.3,30.11,SE,138,0.0,0.0,93,0.00,,,0.00,0,Wunderground v.1.15,2013-07-09 07:45:00,
2013-07-09 03:55:00,73.4,71.3,30.11,SW,216,0.0,0.0,93,0.00,,,0.00,0,Wunderground v.1.15,2013-07-09 07:55:00,
2013-07-09 04:00:00,73.5,71.4,30.11,SW,216,0.0,0.0,93,0.00,,,0.00,0,Wunderground v.1.15,2013-07-09 08:00:00,
2013-07-09 04:05:00,73.5,71.7,30.10,SW,216,0.0,0.0,94,0.00,,,0.00,0,Wunderground v.1.15,2013-07-09 08:05:00,
2013-07-09 04:15:00,73.5,71.7,30.10,SW,216,0.0,0.0,94,0.00,,,0.00,0,Wunderground v.1.15,2013-07-09 08:15:00,
2013-07-09 04:20:00,73.4,71.3,30.11,SW,216,0.0,0.0,93,0.00,,,0.00,0,Wunderground v.1.15,2013-07-09 08:20:00,
2013-07-09 04:25:00,73.3,71.5,30.11,NW,309,0.0,0.0,94,0.00,,,0.00,0,Wunderground v.1.15,2013-07-09 08:25:00,
2013-07-09 04:30:00,73.2,71.4,30.11,NW,309,0.0,0.0,94,0.00,,,0.00,0,Wunderground v.1.15,2013-07-09 08:30:00,
2013-07-09 04:35:00,73.1,71.3,30.11,NW,309,0.0,0.0,94,0.00,,,0.00,0,Wunderground v.1.15,2013-07-09 08:35:00,
2013-07-09 04:45:00,73.0,71.2,30.11,NW,309,0.0,0.0,94,0.00,,,0.00,0,Wunderground v.1.15,2013-07-09 08:45:00,
2013-07-09 04:50:00,73.0,71.5,30.11,NW,309,0.0,0.0,95,0.00,,,0.00,0,Wunderground v.1.15,2013-07-09 08:50:00,
2013-07-09 04:55:00,72.9,71.4,30.11,NW,309,0.0,0.0,95,0.00,,,0.00,0,Wunderground v.1.15,2013-07-09 08:55:00,
2013-07-09 05:00:00,72.9,71.4,30.11,NW,309,0.0,0.0,95,0.00,,,0.00,0,Wunderground v.1.15,2013-07-09 09:00:00,
2013-07-09 05:10:00,72.9,71.4,30.11,NW,309,0.0,0.0,95,0.00,,,0.00,0,Wunderground v.1.15,2013-07-09 09:10:00,
2013-07-09 05:15:00,72.9,71.4,30.11,NW,309,0.0,0.0,95,0.00,,,0.00,0,Wunderground v.1.15,2013-07-09 09:15:00,
2013-07-09 05:20:00,72.8,71.3,30.11,NW,309,0.0,0.0,95,0.00,,,0.00,0,Wunderground v.1.15,2013-07-09 09:20:00,
2013-07-09 05:25:00,72.8,71.3,30.11,NW,309,0.0,0.0,95,0.00,,,0.00,0,Wunderground v.1.15,2013-07-09 09:25:00,
2013-07-09 05:30:00,72.6,71.1,30.11,NW,309,0.0,0.0,95,0.00,,,0.00,0,Wunderground v.1.15,2013-07-09 09:30:00,
2013-07-09 05:40:00,72.7,71.5,30.11,NW,309,0.0,0.0,96,0.00,,,0.00,0,Wunderground v.1.15,2013-07-09 09:40:00,
2013-07-09 05:45:00,72.8,71.6,30.11,NW,309,0.0,0.0,96,0.00,,,0.00,0,Wunderground v.1.15,2013-07-09 09:45:00,
2013-07-09 05:50:00,72.8,71.6,30.11,NW,309,0.0,0.0,96,0.00,,,0.00,0,Wunderground v.1.15,2013-07-09 09:50:00,
2013-07-09 05:55:00,72.8,71.6,30.11,NW,309,0.0,0.0,96,0.00,,,0.00,0,Wunderground v.1.15,2013-07-09 09:55:00,
2013-07-09 06:00:00,72.7,71.5,30.11,NW,309,0.0,0.0,96,0.00,,,0.00,0,Wunderground v.1.15,2013-07-09 10:00:00,
2013-07-09 06:10:00,72.7,71.5,30.11,WSW,253,0.0,0.0,96,0.00,,,0.00,0,Wunderground v.1.15,2013-07-09 10:10:00,
2013-07-09 06:15:00,72.8,71.6,30.11,WSW,253,0.0,0.0,96,0.00,,,0.00,5,Wunderground v.1.15,2013-07-09 10:15:00,
2013-07-09 06:20:00,72.8,71.6,30.11,WSW,253,0.0,0.0,96,0.00,,,0.00,9,Wunderground v.1.15,2013-07-09 10:20:00,
2013-07-09 06:25:00,72.9,71.7,30.11,WSW,253,0.0,0.0,96,0.00,,,0.00,12,Wunderground v.1.15,2013-07-09 10:25:00,
2013-07-09 06:35:00,72.9,71.7,30.12,South,171,0.0,0.0,96,0.00,,,0.00,19,Wunderground v.1.15,2013-07-09 10:35:00,
2013-07-09 06:40:00,72.9,71.7,30.12,SSE,157,0.0,0.0,96,0.00,,,0.00,25,Wunderground v.1.15,2013-07-09 10:40:00,
2013-07-09 06:45:00,72.9,71.7,30.12,SSE,165,0.0,0.0,96,0.00,,,0.00,30,Wunderground v.1.15,2013-07-09 10:45:00,
2013-07-09 06:50:00,72.9,71.7,30.12,SSE,165,0.0,0.0,96,0.00,,,0.00,37,Wunderground v.1.15,2013-07-09 10:50:00,
2013-07-09 07:00:00,73.0,71.8,30.13,ESE,120,0.0,0.0,96,0.00,,,0.00,53,Wunderground v.1.15,2013-07-09 11:00:00,
2013-07-09 07:05:00,73.1,71.9,30.13,ESE,120,0.0,0.0,96,0.00,,,0.00,60,Wunderground v.1.15,2013-07-09 11:05:00,
2013-07-09 07:10:00,73.2,72.0,30.13,SE,126,0.0,0.0,96,0.00,,,0.00,70,Wunderground v.1.15,2013-07-09 11:10:00,
2013-07-09 07:15:00,73.2,72.0,30.13,SSE,165,0.0,0.0,96,0.00,,,0.00,88,Wunderground v.1.15,2013-07-09 11:15:00,
2013-07-09 07:25:00,73.4,72.2,30.13,SSE,161,1.0,1.0,96,0.00,,,0.00,97,Wunderground v.1.15,2013-07-09 11:25:00,
2013-07-09 07:30:00,73.6,72.4,30.13,SSE,148,0.0,0.0,96,0.00,,,0.00,105,Wunderground v.1.15,2013-07-09 11:30:00,
2013-07-09 07:35:00,73.8,72.6,30.12,SE,145,0.0,0.0,96,0.00,,,0.00,114,Wunderground v.1.15,2013-07-09 11:35:00,
2013-07-09 07:40:00,73.9,72.7,30.12,SSE,153,0.0,0.0,96,0.00,,,0.00,125,Wunderground v.1.15,2013-07-09 11:40:00,
2013-07-09 07:50:00,74.2,73.0,30.12,SSE,155,1.0,1.0,96,0.00,,,0.00,144,Wunderground v.1.15,2013-07-09 11:50:00,
2013-07-09 07:55:00,74.5,73.3,30.12,South,171,1.0,1.0,96,0.00,,,0.00,135,Wunderground v.1.15,2013-07-09 11:55:00,
2013-07-09 08:00:00,74.7,73.2,30.12,South,171,0.0,0.0,95,0.00,,,0.00,130,Wunderground v.1.15,2013-07-09 12:00:00,
2013-07-09 08:05:00,75.0,73.5,30.12,South,171,0.0,0.0,95,0.00,,,0.00,155,Wunderground v.1.15,2013-07-09 12:05:00,
2013-07-09 08:10:00,75.3,73.8,30.12,South,171,0.0,0.0,95,0.00,,,0.00,146,Wunderground v.1.15,2013-07-09 12:10:00,
2013-07-09 08:20:00,75.8,73.9,30.12,South,171,0.0,0.0,94,0.00,,,0.00,141,Wunderground v.1.15,2013-07-09 12:20:00,
2013-07-09 08:25:00,76.1,74.2,30.13,South,171,0.0,0.0,94,0.00,,,0.00,135,Wunderground v.1.15,2013-07-09 12:25:00,
2013-07-09 08:30:00,76.3,74.4,30.13,South,171,0.0,0.0,94,0.00,,,0.00,137,Wunderground v.1.15,2013-07-09 12:30:00,
2013-07-09 08:35:00,76.5,74.6,30.13,SSW,209,0.0,0.0,94,0.00,,,0.00,142,Wunderground v.1.15,2013-07-09 12:35:00,
2013-07-09 08:40:00,76.7,74.5,30.13,SSW,209,0.0,0.0,93,0.00,,,0.00,121,Wunderground v.1.15,2013-07-09 12:40:00,
2013-07-09 08:50:00,77.1,74.6,30.13,SSW,206,0.0,0.0,92,0.00,,,0.00,135,Wunderground v.1.15,2013-07-09 12:50:00,
2013-07-09 08:55:00,77.2,74.7,30.13,SSW,206,0.0,0.0,92,0.00,,,0.00,139,Wunderground v.1.15,2013-07-09 12:55:00,
2013-07-09 09:00:00,77.4,74.9,30.12,SSW,206,0.0,0.0,92,0.00,,,0.00,148,Wunderground v.1.15,2013-07-09 13:00:00,
2013-07-09 09:05:00,77.7,75.2,30.13,SSW,206,0.0,0.0,92,0.00,,,0.00,178,Wunderground v.1.15,2013-07-09 13:05:00,
2013-07-09 09:15:00,78.2,75.4,30.13,SSE,165,0.0,0.0,91,0.00,,,0.00,207,Wunderground v.1.15,2013-07-09 13:15:00,
2013-07-09 09:20:00,78.5,75.3,30.13,SSE,162,0.0,0.0,90,0.00,,,0.00,227,Wunderground v.1.15,2013-07-09 13:20:00,
2013-07-09 09:25:00,78.7,75.5,30.13,South,172,0.0,0.0,90,0.00,,,0.00,220,Wunderground v.1.15,2013-07-09 13:25:00,
2013-07-09 09:30:00,78.9,75.7,30.12,SSE,168,1.0,2.0,90,0.00,,,0.00,216,Wunderground v.1.15,2013-07-09 13:30:00,
2013-07-09 09:35:00,79.2,75.7,30.12,South,171,2.0,2.0,89,0.00,,,0.00,229,Wunderground v.1.15,2013-07-09 13:35:00,
2013-07-09 09:45:00,79.6,76.1,30.12,South,190,0.0,1.0,89,0.00,,,0.00,250,Wunderground v.1.15,2013-07-09 13:45:00,
2013-07-09 09:50:00,79.8,76.3,30.12,South,190,0.0,0.0,89,0.00,,,0.00,255,Wunderground v.1.15,2013-07-09 13:50:00,
2013-07-09 09:55:00,80.2,76.7,30.13,South,184,0.0,4.0,89,0.00,,,0.00,248,Wunderground v.1.15,2013-07-09 13:55:00,
2013-07-09 10:00:00,80.2,76.3,30.13,South,184,2.0,2.0,88,0.00,,,0.00,243,Wunderground v.1.15,2013-07-09 14:00:00,
2013-07-09 10:10:00,80.4,76.5,30.13,South,169,0.0,0.0,88,0.00,,,0.00,251,Wunderground v.1.15,2013-07-09 14:10:00,
2013-07-09 10:15:00,80.5,76.3,30.13,South,170,0.0,0.0,87,0.00,,,0.00,265,Wunderground v.1.15,2013-07-09 14:15:00,
2013-07-09 10:20:00,80.6,76.4,30.13,South,186,0.0,0.0,87,0.00,,,0.00,248,Wunderground v.1.15,2013-07-09 14:20:00,
2013-07-09 10:25:00,80.7,76.5,30.13,South,171,0.0,0.0,87,0.00,,,0.00,265,Wunderground v.1.15,2013-07-09 14:25:00,
2013-07-09 10:30:00,80.7,76.1,30.13,South,174,0.0,0.0,86,0.00,,,0.00,223,Wunderground v.1.15,2013-07-09 14:30:00,
2013-07-09 10:40:00,80.8,76.6,30.13,South,178,1.0,1.0,87,0.00,,,0.00,206,Wunderground v.1.15,2013-07-09 14:40:00,
2013-07-09 10:45:00,80.7,76.1,30.13,South,180,1.0,1.0,86,0.00,,,0.00,195,Wunderground v.1.15,2013-07-09 14:45:00,
2013-07-09 10:50:00,80.7,76.5,30.13,South,180,0.0,0.0,87,0.00,,,0.00,213,Wunderground v.1.15,2013-07-09 14:50:00,
2013-07-09 10:55:00,80.7,76.5,30.13,SSE,157,0.0,0.0,87,0.00,,,0.00,271,Wunderground v.1.15,2013-07-09 14:55:00,
2013-07-09 11:05:00,80.8,76.6,30.14,South,178,3.0,6.0,87,0.00,,,0.00,308,Wunderground v.1.15,2013-07-09 15:05:00,
2013-07-09 11:10:00,80.7,76.1,30.13,South,176,3.0,3.0,86,0.00,,,0.00,311,Wunderground v.1.15,2013-07-09 15:10:00,
2013-07-09 11:15:00,80.6,76.4,30.13,South,186,3.0,3.0,87,0.00,,,0.00,315,Wunderground v.1.15,2013-07-09 15:15:00,
2013-07-09 11:25:00,80.4,76.2,30.14,SSE,160,4.0,7.0,87,0.00,,,0.00,255,Wunderground v.1.15,2013-07-09 15:25:00,
2013-07-09 11:30:00,80.3,76.1,30.14,SSW,197,6.0,6.0,87,0.00,,,0.00,316,Wunderground v.1.15,2013-07-09 15:30:00,
2013-07-09 11:35:00,80.2,76.0,30.14,South,173,7.0,8.0,87,0.00,,,0.00,315,Wunderground v.1.15,2013-07-09 15:35:00,
2013-07-09 11:40:00,80.2,76.0,30.14,South,170,6.0,9.0,87,0.00,,,0.00,388,Wunderground v.1.15,2013-07-09 15:40:00,
2013-07-09 11:50:00,80.3,75.7,30.14,SSW,202,5.0,7.0,86,0.00,,,0.00,765,Wunderground v.1.15,2013-07-09 15:50:00,
2013-07-09 11:55:00,80.3,75.7,30.14,South,169,5.0,7.0,86,0.00,,,0.00,436,Wunderground v.1.15,2013-07-09 15:55:00,
2013-07-09 12:00:00,80.6,75.7,30.14,SSW,200,5.0,7.0,85,0.00,,,0.00,473,Wunderground v.1.15,2013-07-09 16:00:00,
2013-07-09 12:05:00,81.0,76.1,30.14,South,183,5.0,7.0,85,0.00,,,0.00,1016,Wunderground v.1.15,2013-07-09 16:05:00,
2013-07-09 12:10:00,81.7,76.7,30.14,SSE,167,5.0,5.0,85,0.00,,,0.00,664,Wunderground v.1.15,2013-07-09 16:10:00,
2013-07-09 12:20:00,82.0,76.3,30.14,South,175,4.0,7.0,83,0.00,,,0.00,378,Wunderground v.1.15,2013-07-09 16:20:00,
2013-07-09 12:25:00,82.0,76.0,30.14,South,172,3.0,7.0,82,0.00,,,0.00,299,Wunderground v.1.15,2013-07-09 16:25:00,
2013-07-09 12:30:00,82.3,76.3,30.13,South,175,0.0,0.0,82,0.00,,,0.00,343,Wunderground v.1.15,2013-07-09 16:30:00,
2013-07-09 12:35:00,82.3,76.6,30.13,South,190,0.0,0.0,83,0.00,,,0.00,411,Wunderground v.1.15,2013-07-09 16:35:00,
2013-07-09 12:40:00,82.9,76.8,30.13,SSE,167,0.0,0.0,82,0.00,,,0.00,914,Wunderground v.1.15,2013-07-09 16:40:00,
2013-07-09 12:50:00,84.3,77.1,30.13,South,177,0.0,0.0,79,0.00,,,0.00,1139,Wunderground v.1.15,2013-07-09 16:50:00,
2013-07-09 12:55:00,85.0,77.0,30.12,South,178,1.0,1.0,77,0.00,,,0.00,301,Wunderground v.1.15,2013-07-09 16:55:00,
2013-07-09 13:00:00,85.3,77.3,30.12,SSE,167,2.0,6.0,77,0.00,,,0.00,1067,Wunderground v.1.15,2013-07-09 17:00:00,
2013-07-09 13:10:00,85.7,77.3,30.13,South,186,2.0,5.0,76,0.00,,,0.00,1058,Wunderground v.1.15,2013-07-09 17:10:00,
2013-07-09 13:15:00,85.9,77.1,30.12,SSE,159,1.0,5.0,75,0.00,,,0.00,236,Wunderground v.1.15,2013-07-09 17:15:00,
2013-07-09 13:20:00,86.2,77.3,30.12,South,180,1.0,1.0,75,0.00,,,0.00,359,Wunderground v.1.15,2013-07-09 17:20:00,
2013-07-09 13:25:00,86.5,77.6,30.12,SW,221,1.0,5.0,75,0.00,,,0.00,1148,Wunderground v.1.15,2013-07-09 17:25:00,
2013-07-09 13:30:00,86.2,76.9,30.11,South,178,2.0,2.0,74,0.00,,,0.00,1123,Wunderground v.1.15,2013-07-09 17:30:00,
2013-07-09 13:40:00,87.2,77.5,30.11,SSE,166,1.0,1.0,73,0.00,,,0.00,990,Wunderground v.1.15,2013-07-09 17:40:00,
2013-07-09 13:45:00,87.5,77.4,30.10,South,177,2.0,2.0,72,0.00,,,0.00,1079,Wunderground v.1.15,2013-07-09 17:45:00,
2013-07-09 13:50:00,87.6,77.0,30.10,South,175,3.0,4.0,71,0.00,,,0.00,543,Wunderground v.1.15,2013-07-09 17:50:00,
2013-07-09 13:55:00,87.9,77.3,30.10,South,173,2.0,4.0,71,0.00,,,0.00,471,Wunderground v.1.15,2013-07-09 17:55:00,
2013-07-09 14:05:00,88.5,77.0,30.10,SW,233,0.0,0.0,69,0.00,,,0.00,471,Wunderground v.1.15,2013-07-09 18:05:00,
2013-07-09 14:10:00,88.1,77.5,30.10,SSE,167,0.0,0.0,71,0.00,,,0.00,403,Wunderground v.1.15,2013-07-09 18:10:00,
2013-07-09 14:15:00,88.2,77.6,30.10,SSE,167,0.0,0.0,71,0.00,,,0.00,415,Wunderground v.1.15,2013-07-09 18:15:00,
2013-07-09 14:25:00,88.4,78.2,30.10,SSE,167,0.0,0.0,72,0.00,,,0.00,953,Wunderground v.1.15,2013-07-09 18:25:00,
2013-07-09 14:30:00,89.2,78.1,30.09,South,173,0.0,0.0,70,0.00,,,0.00,1049,Wunderground v.1.15,2013-07-09 18:30:00,
2013-07-09 14:35:00,89.6,78.1,30.09,South,173,0.0,0.0,69,0.00,,,0.00,306,Wunderground v.1.15,2013-07-09 18:35:00,
2013-07-09 14:40:00,89.6,77.6,30.09,South,170,0.0,0.0,68,0.00,,,0.00,476,Wunderground v.1.15,2013-07-09 18:40:00,
2013-07-09 14:45:00,89.0,77.1,30.09,South,181,1.0,5.0,68,0.00,,,0.00,346,Wunderground v.1.15,2013-07-09 18:45:00,
2013-07-09 14:55:00,87.8,76.8,30.09,SSE,162,1.0,2.0,70,0.00,,,0.00,294,Wunderground v.1.15,2013-07-09 18:55:00,
2013-07-09 15:00:00,87.5,77.4,30.08,SSE,162,0.0,0.0,72,0.00,,,0.00,260,Wunderground v.1.15,2013-07-09 19:00:00,
2013-07-09 15:10:00,87.2,77.9,30.08,SSW,202,0.0,0.0,74,0.00,,,0.00,292,Wunderground v.1.15,2013-07-09 19:10:00,
2013-07-09 15:15:00,87.2,77.9,30.08,South,189,0.0,0.0,74,0.00,,,0.00,265,Wunderground v.1.15,2013-07-09 19:15:00,
2013-07-09 15:20:00,87.0,77.7,30.08,South,182,0.0,0.0,74,0.00,,,0.00,265,Wunderground v.1.15,2013-07-09 19:20:00,
2013-07-09 15:25:00,86.8,77.9,30.07,South,182,0.0,0.0,75,0.00,,,0.00,278,Wunderground v.1.15,2013-07-09 19:25:00,
2013-07-09 15:35:00,86.4,77.9,30.07,South,182,0.0,0.0,76,0.00,,,0.00,355,Wunderground v.1.15,2013-07-09 19:35:00,
2013-07-09 15:40:00,86.8,78.3,30.07,South,182,0.0,0.0,76,0.00,,,0.00,369,Wunderground v.1.15,2013-07-09 19:40:00,
2013-07-09 15:45:00,87.3,78.8,30.07,South,182,0.0,0.0,76,0.00,,,0.00,425,Wunderground v.1.15,2013-07-09 19:45:00,
2013-07-09 15:50:00,87.8,77.6,30.07,SSW,193,0.0,0.0,72,0.00,,,0.00,612,Wunderground v.1.15,2013-07-09 19:50:00,
2013-07-09 16:00:00,87.9,77.7,30.07,South,177,0.0,0.0,72,0.00,,,0.00,345,Wunderground v.1.15,2013-07-09 20:00:00,
2013-07-09 16:05:00,87.8,77.6,30.07,SSE,157,0.0,0.0,72,0.00,,,0.00,325,Wunderground v.1.15,2013-07-09 20:05:00,
2013-07-09 16:10:00,87.8,78.1,30.07,SSE,157,0.0,0.0,73,0.00,,,0.00,315,Wunderground v.1.15,2013-07-09 20:10:00,
2013-07-09 16:15:00,88.0,78.3,30.07,SSE,157,0.0,0.0,73,0.00,,,0.00,450,Wunderground v.1.15,2013-07-09 20:15:00,
2013-07-09 16:20:00,88.1,78.3,30.07,SSE,157,0.0,0.0,73,0.00,,,0.00,788,Wunderground v.1.15,2013-07-09 20:20:00,
2013-07-09 16:30:00,89.2,78.6,30.07,South,171,0.0,2.0,71,0.00,,,0.00,816,Wunderground v.1.15,2013-07-09 20:30:00,
2013-07-09 16:35:00,89.7,78.6,30.06,South,179,0.0,2.0,70,0.00,,,0.00,745,Wunderground v.1.15,2013-07-09 20:35:00,
2013-07-09 16:40:00,90.0,78.5,30.06,SSE,165,0.0,0.0,69,0.00,,,0.00,707,Wunderground v.1.15,2013-07-09 20:40:00,
2013-07-09 16:45:00,89.9,77.9,30.06,SSW,202,1.0,1.0,68,0.00,,,0.00,689,Wunderground v.1.15,2013-07-09 20:45:00,
2013-07-09 16:55:00,88.9,77.8,30.06,SSW,210,0.0,1.0,70,0.00,,,0.00,608,Wunderground v.1.15,2013-07-09 20:55:00,
2013-07-09 17:00:00,88.5,77.5,30.06,SSW,202,0.0,0.0,70,0.00,,,0.00,443,Wunderground v.1.15,2013-07-09 21:00:00,
2013-07-09 17:05:00,88.1,77.9,30.06,SSW,205,0.0,0.0,72,0.00,,,0.00,248,Wunderground v.1.15,2013-07-09 21:05:00,
2013-07-09 17:10:00,87.7,77.5,30.05,South,177,0.0,0.0,72,0.00,,,0.00,142,Wunderground v.1.15,2013-07-09 21:10:00,
2013-07-09 17:20:00,87.2,77.9,30.05,SSE,167,0.0,0.0,74,0.00,,,0.00,186,Wunderground v.1.15,2013-07-09 21:20:00,
2013-07-09 17:25:00,87.2,78.3,30.05,SSE,167,0.0,0.0,75,0.00,,,0.00,190,Wunderground v.1.15,2013-07-09 21:25:00,
2013-07-09 17:30:00,87.2,78.3,30.05,SSE,158,0.0,0.0,75,0.00,,,0.00,478,Wunderground v.1.15,2013-07-09 21:30:00,
2013-07-09 17:35:00,87.4,78.5,30.05,South,175,0.0,0.0,75,0.00,,,0.00,596,Wunderground v.1.15,2013-07-09 21:35:00,
2013-07-09 17:45:00,88.6,78.8,30.05,South,179,0.0,0.0,73,0.00,,,0.00,591,Wunderground v.1.15,2013-07-09 21:45:00,
2013-07-09 17:50:00,88.0,78.3,30.05,SW,221,0.0,0.0,73,0.00,,,0.00,490,Wunderground v.1.15,2013-07-09 21:50:00,
2013-07-09 17:55:00,87.2,78.3,30.05,South,172,0.0,2.0,75,0.00,,,0.00,531,Wunderground v.1.15,2013-07-09 21:55:00,
2013-07-09 18:00:00,87.4,78.5,30.05,SSW,192,1.0,6.0,75,0.00,,,0.00,536,Wunderground v.1.15,2013-07-09 22:00:00,
2013-07-09 18:05:00,87.6,78.7,30.05,South,181,4.0,15.0,75,0.00,,,0.00,548,Wunderground v.1.15,2013-07-09 22:05:00,
2013-07-09 18:15:00,84.7,77.1,30.05,SSW,197,10.0,10.0,78,0.00,,,0.00,427,Wunderground v.1.15,2013-07-09 22:15:00,
2013-07-09 18:20:00,84.0,76.8,30.05,South,186,9.0,9.0,79,0.00,,,0.00,439,Wunderground v.1.15,2013-07-09 22:20:00,
2013-07-09 18:25:00,83.7,76.9,30.05,SSW,193,8.0,9.0,80,0.00,,,0.00,418,Wunderground v.1.15,2013-07-09 22:25:00,
2013-07-09 18:30:00,83.7,76.9,30.05,South,186,7.0,7.0,80,0.00,,,0.00,381,Wunderground v.1.15,2013-07-09 22:30:00,
2013-07-09 18:35:00,83.5,76.7,30.05,South,182,6.0,7.0,80,0.00,,,0.00,301,Wunderground v.1.15,2013-07-09 22:35:00,
2013-07-09 18:45:00,83.0,75.8,30.05,SSW,200,5.0,7.0,79,0.00,,,0.00,345,Wunderground v.1.15,2013-07-09 22:45:00,
2013-07-09 18:50:00,82.8,75.6,30.05,SSE,167,6.0,6.0,79,0.00,,,0.00,272,Wunderground v.1.15,2013-07-09 22:50:00,
2013-07-09 18:55:00,82.8,75.2,30.04,South,186,5.0,6.0,78,0.00,,,0.00,125,Wunderground v.1.15,2013-07-09 22:55:00,
2013-07-09 19:05:00,82.4,75.2,30.05,SSE,157,0.0,2.0,79,0.00,,,0.00,156,Wunderground v.1.15,2013-07-09 23:05:00,
2013-07-09 19:10:00,82.3,75.1,30.05,SSW,213,2.0,5.0,79,0.00,,,0.00,221,Wunderground v.1.15,2013-07-09 23:10:00,
2013-07-09 19:15:00,82.1,74.9,30.05,SSE,165,5.0,5.0,79,0.00,,,0.00,176,Wunderground v.1.15,2013-07-09 23:15:00,
2013-07-09 19:20:00,81.6,74.5,30.05,SSE,163,6.0,6.0,79,0.00,,,0.00,83,Wunderground v.1.15,2013-07-09 23:20:00,
2013-07-09 19:30:00,80.7,74.0,30.06,South,174,6.0,6.0,80,0.00,,,0.00,111,Wunderground v.1.15,2013-07-09 23:30:00,
2013-07-09 19:35:00,80.3,74.3,30.06,South,180,6.0,8.0,82,0.00,,,0.00,67,Wunderground v.1.15,2013-07-09 23:35:00,
2013-07-09 19:40:00,79.9,73.9,30.06,South,183,6.0,6.0,82,0.00,,,0.00,53,Wunderground v.1.15,2013-07-09 23:40:00,
2013-07-09 19:45:00,79.5,73.9,30.07,South,171,6.0,6.0,83,0.00,,,0.00,56,Wunderground v.1.15,2013-07-09 23:45:00,
2013-07-09 19:55:00,79.1,73.5,30.07,South,176,3.0,6.0,83,0.00,,,0.00,46,Wunderground v.1.15,2013-07-09 23:55:00,
2013-07-09 20:00:00,78.9,73.3,30.07,SSE,165,3.0,3.0,83,0.00,,,0.00,46,Wunderground v.1.15,2013-07-10 00:00:00,
2013-07-09 20:05:00,78.8,73.2,30.08,South,178,2.0,4.0,83,0.00,,,0.00,35,Wunderground v.1.15,2013-07-10 00:05:00,
2013-07-09 20:10:00,78.8,73.2,30.07,SSE,167,3.0,7.0,83,0.00,,,0.00,23,Wunderground v.1.15,2013-07-10 00:10:00,
2013-07-09 20:20:00,78.4,73.2,30.08,South,186,5.0,5.0,84,0.00,,,0.00,9,Wunderground v.1.15,2013-07-10 00:20:00,
2013-07-09 20:25:00,78.2,73.3,30.08,South,171,4.0,5.0,85,0.00,,,0.00,0,Wunderground v.1.15,2013-07-10 00:25:00,
2013-07-09 20:30:00,78.0,73.1,30.08,South,169,3.0,9.0,85,0.00,,,0.00,0,Wunderground v.1.15,2013-07-10 00:30:00,
2013-07-09 20:40:00,77.7,73.2,30.07,South,187,3.0,4.0,86,0.00,,,0.00,0,Wunderground v.1.15,2013-07-10 00:40:00,
2013-07-09 20:45:00,77.5,73.3,30.07,SSE,163,3.0,5.0,87,0.00,,,0.00,0,Wunderground v.1.15,2013-07-10 00:45:00,
2013-07-09 20:50:00,77.4,73.6,30.07,SSW,195,4.0,4.0,88,0.00,,,0.00,0,Wunderground v.1.15,2013-07-10 00:50:00,
2013-07-09 21:00:00,77.3,73.5,30.07,SSW,193,4.0,6.0,88,0.00,,,0.00,0,Wunderground v.1.15,2013-07-10 01:00:00,
2013-07-09 21:05:00,77.3,73.5,30.07,SSW,209,3.0,6.0,88,0.00,,,0.00,0,Wunderground v.1.15,2013-07-10 01:05:00,
2013-07-09 21:10:00,77.3,73.5,30.08,South,172,3.0,9.0,88,0.00,,,0.00,0,Wunderground v.1.15,2013-07-10 01:10:00,
2013-07-09 21:15:00,77.3,73.5,30.08,South,187,4.0,9.0,88,0.00,,,0.00,0,Wunderground v.1.15,2013-07-10 01:15:00,
2013-07-09 21:20:00,77.3,73.5,30.07,South,183,4.0,5.0,88,0.00,,,0.00,0,Wunderground v.1.15,2013-07-10 01:20:00,
2013-07-09 21:30:00,77.3,73.5,30.08,South,175,5.0,5.0,88,0.00,,,0.00,0,Wunderground v.1.15,2013-07-10 01:30:00,
2013-07-09 21:35:00,77.2,73.4,30.08,SSE,168,2.0,5.0,88,0.00,,,0.00,0,Wunderground v.1.15,2013-07-10 01:35:00,
2013-07-09 21:40:00,77.2,73.4,30.08,SSW,207,2.0,2.0,88,0.00,,,0.00,0,Wunderground v.1.15,2013-07-10 01:40:00,
2013-07-09 21:45:00,77.3,73.5,30.08,SSW,199,2.0,2.0,88,0.00,,,0.00,0,Wunderground v.1.15,2013-07-10 01:45:00,
2013-07-09 21:55:00,77.3,73.5,30.09,South,191,0.0,1.0,88,0.00,,,0.00,0,Wunderground v.1.15,2013-07-10 01:55:00,
2013-07-09 22:00:00,77.3,73.8,30.08,South,171,0.0,0.0,89,0.00,,,0.00,0,Wunderground v.1.15,2013-07-10 02:00:00,
2013-07-09 22:05:00,77.2,73.4,30.08,SSE,165,0.0,0.0,88,0.00,,,0.00,0,Wunderground v.1.15,2013-07-10 02:05:00,
2013-07-09 22:15:00,77.1,73.6,30.08,South,185,0.0,0.0,89,0.00,,,0.00,0,Wunderground v.1.15,2013-07-10 02:15:00,
2013-07-09 22:20:00,77.1,73.6,30.09,SSE,165,0.0,0.0,89,0.00,,,0.00,0,Wunderground v.1.15,2013-07-10 02:20:00,
2013-07-09 22:25:00,77.0,73.5,30.08,SSE,155,0.0,0.0,89,0.00,,,0.00,0,Wunderground v.1.15,2013-07-10 02:25:00,
2013-07-09 22:30:00,77.0,73.5,30.08,South,174,0.0,0.0,89,0.00,,,0.00,0,Wunderground v.1.15,2013-07-10 02:30:00,
2013-07-09 22:40:00,76.9,73.4,30.08,SSW,212,0.0,0.0,89,0.00,,,0.00,0,Wunderground v.1.15,2013-07-10 02:40:00,
2013-07-09 22:45:00,76.8,73.6,30.08,SSE,147,0.0,0.0,90,0.00,,,0.00,0,Wunderground v.1.15,2013-07-10 02:45:00,
2013-07-09 22:50:00,76.8,73.6,30.07,SSE,159,0.0,0.0,90,0.00,,,0.00,0,Wunderground v.1.15,2013-07-10 02:50:00,
2013-07-09 22:55:00,76.7,73.5,30.07,South,171,0.0,0.0,90,0.00,,,0.00,0,Wunderground v.1.15,2013-07-10 02:55:00,
2013-07-09 23:05:00,76.5,73.7,30.07,South,176,0.0,0.0,91,0.00,,,0.00,0,Wunderground v.1.15,2013-07-10 03:05:00,
2013-07-09 23:10:00,76.4,73.6,30.07,ESE,121,0.0,0.0,91,0.00,,,0.00,0,Wunderground v.1.15,2013-07-10 03:10:00,
2013-07-09 23:15:00,76.4,73.6,30.07,South,178,0.0,6.0,91,0.00,,,0.00,0,Wunderground v.1.15,2013-07-10 03:15:00,
2013-07-09 23:25:00,76.1,73.6,30.08,South,170,2.0,6.0,92,0.00,,,0.00,0,Wunderground v.1.15,2013-07-10 03:25:00,
2013-07-09 23:30:00,76.0,73.5,30.08,SSE,165,2.0,2.0,92,0.00,,,0.00,0,Wunderground v.1.15,2013-07-10 03:30:00,
2013-07-09 23:35:00,76.0,73.5,30.08,South,170,1.0,2.0,92,0.00,,,0.00,0,Wunderground v.1.15,2013-07-10 03:35:00,
2013-07-09 23:40:00,75.9,73.4,30.08,South,170,0.0,0.0,92,0.00,,,0.00,0,Wunderground v.1.15,2013-07-10 03:40:00,
2013-07-09 23:50:00,75.9,73.4,30.08,SSW,205,0.0,0.0,92,0.00,,,0.00,0,Wunderground v.1.15,2013-07-10 03:50:00,
2013-07-09 23:55:00,76.0,73.5,30.08,South,179,0.0,0.0,92,0.00,,,0.00,0,Wunderground v.1.15,2013-07-10 03:55:00,